KISO/ISO METAR and TAF weather

Enter ICAO airport designator
Station Type Date Time Source
KISO METAR 2020/03/31 06:15 UTC NOAA

KISO 310615Z AUTO 29004KT 10SM CLR 18/02 A2991 RMK AO2 T01820023


Station Type Date Time Source
KISO Decoded METAR 2020/03/31 06:15 UTC NOAA

Kinston, Kinston Regional Jetport at Stallings Field, NC, United States (KISO) 35-20N 077-37W
Mar 31, 2020 - 02:15 AM EDT / 2020.03.31 0615 UTC
Wind: from the WNW (290 degrees) at 5 MPH (4 KT):0
Visibility: 10 mile(s):0
Sky conditions: clear
Temperature: 64.8 F (18.2 C)
Dew Point: 36.1 F (2.3 C)
Relative Humidity: 34%
Pressure (altimeter): 29.91 in. Hg (1012 hPa)
ob: KISO 310615Z AUTO 29004KT 10SM CLR 18/02 A2991 RMK AO2 T01820023
cycle: 6

Station Type Date Time Source
KISO TAF 2020/03/31 06:30 UTC NOAA

TAF KISO 310529Z 3106/0106 VRB04KT P6SM BKN150
FM311100 04008KT P6SM BKN100
FM312100 07008G15KT 6SM -SHRA SCT020 BKN060
FM010000 05010G17KT 4SM SHRA OVC010
FM010200 04010G17KT 4SM SHRA OVC008
AMD LTD TO CLD VIS AND WIND

Example: see airport list